Time;durP1;ratioP1;P1;durP2;ratioP2;P2;SDS_P1;SDS_P2;PMS_P1;PMS_P2;Temp;Humidity;BMP_temperature;BMP_pressure;BME280_temperature;BME280_humidity;BME280_pressure;Samples;Min_cycle;Max_cycle;Signal;HPM_P1;HPM_P2
2023/01/31 00:01:33;;;;;;;9.48;2.17;;;;;;;;;;6247767;22;19923;-70
2023/01/31 00:04:01;;;;;;;8.82;1.48;;;;;;;;;;6228817;22;20023;-70
2023/01/31 00:06:28;;;;;;;7.70;1.60;;;;;;;;;;6262444;22;20027;-70
2023/01/31 00:08:55;;;;;;;7.55;1.60;;;;;;;;;;6246027;22;20015;-70
2023/01/31 00:11:22;;;;;;;10.15;2.05;;;;;;;;;;6228437;22;20033;-68
2023/01/31 00:13:49;;;;;;;11.52;1.67;;;;;;;;;;6232705;22;20027;-69
2023/01/31 00:16:16;;;;;;;9.23;1.80;;;;;;;;;;6233950;22;20023;-69
2023/01/31 00:18:44;;;;;;;8.13;1.52;;;;;;;;;;6261089;22;20077;-70
2023/01/31 00:21:12;;;;;;;9.27;1.80;;;;;;;;;;6214798;22;20027;-70
2023/01/31 00:23:39;;;;;;;7.63;1.80;;;;;;;;;;6248072;22;20162;-70
2023/01/31 00:26:09;;;;;;;8.10;1.30;;;;;;;;;;6226608;22;20030;-70
2023/01/31 00:28:36;;;;;;;13.18;1.90;;;;;;;;;;6228248;22;20027;-70
2023/01/31 00:31:02;;;;;;;6.60;1.52;;;;;;;;;;6221050;22;20023;-70
2023/01/31 00:33:29;;;;;;;11.40;1.85;;;;;;;;;;6240206;22;20045;-70
2023/01/31 00:35:57;;;;;;;8.02;2.00;;;;;;;;;;6220889;22;20027;-70
2023/01/31 00:38:23;;;;;;;7.35;1.85;;;;;;;;;;6227805;22;20023;-69
2023/01/31 00:40:55;;;;;;;6.97;1.50;;;;;;;;;;6236549;22;20019;-69
2023/01/31 00:43:22;;;;;;;6.13;1.40;;;;;;;;;;6250669;22;20087;-68
2023/01/31 00:45:48;;;;;;;6.82;1.40;;;;;;;;;;6227280;22;20019;-68
2023/01/31 00:48:15;;;;;;;8.13;1.75;;;;;;;;;;6244147;22;20015;-70
2023/01/31 00:50:41;;;;;;;11.38;1.80;;;;;;;;;;6230998;22;20170;-69
2023/01/31 00:53:09;;;;;;;8.00;1.50;;;;;;;;;;6189673;22;20026;-70
2023/01/31 00:55:36;;;;;;;8.10;1.40;;;;;;;;;;6254687;22;20030;-69
2023/01/31 00:58:03;;;;;;;5.43;1.48;;;;;;;;;;6252771;22;20098;-69
2023/01/31 01:00:29;;;;;;;8.50;1.60;;;;;;;;;;6254579;22;20020;-69
2023/01/31 01:02:56;;;;;;;5.35;1.48;;;;;;;;;;6216371;22;20023;-70
2023/01/31 01:05:22;;;;;;;6.28;1.70;;;;;;;;;;6250953;22;20035;-68
2023/01/31 01:07:49;;;;;;;8.52;1.58;;;;;;;;;;6253083;22;20054;-69
2023/01/31 01:10:17;;;;;;;8.05;1.30;;;;;;;;;;6229278;22;20020;-69
2023/01/31 01:12:44;;;;;;;6.75;1.70;;;;;;;;;;6249183;22;20028;-69
2023/01/31 01:15:10;;;;;;;5.47;1.08;;;;;;;;;;6236774;22;20146;-69
2023/01/31 01:17:37;;;;;;;6.10;1.35;;;;;;;;;;6227256;22;20485;-69
2023/01/31 01:20:04;;;;;;;12.05;1.30;;;;;;;;;;6227858;22;20074;-69
2023/01/31 01:22:31;;;;;;;7.25;1.73;;;;;;;;;;6224552;22;20035;-70
2023/01/31 01:24:57;;;;;;;7.00;1.58;;;;;;;;;;6246211;22;20050;-69
2023/01/31 01:27:26;;;;;;;5.72;1.23;;;;;;;;;;6238654;22;20023;-68
2023/01/31 01:29:52;;;;;;;4.15;1.30;;;;;;;;;;6231962;22;20023;-68
2023/01/31 01:32:19;;;;;;;9.55;1.30;;;;;;;;;;6232066;22;20031;-70
2023/01/31 01:34:46;;;;;;;2.97;1.13;;;;;;;;;;6201122;22;20033;-68
2023/01/31 01:37:18;;;;;;;7.70;1.63;;;;;;;;;;6250033;22;20120;-69
2023/01/31 01:39:45;;;;;;;8.48;1.33;;;;;;;;;;6212973;22;20023;-69
2023/01/31 01:42:14;;;;;;;7.50;1.23;;;;;;;;;;6252322;22;20047;-69
2023/01/31 01:44:48;;;;;;;8.10;1.42;;;;;;;;;;6248613;22;20049;-69
2023/01/31 01:47:18;;;;;;;7.10;1.58;;;;;;;;;;6208910;22;20031;-69
2023/01/31 01:49:46;;;;;;;10.27;1.45;;;;;;;;;;6241509;22;20020;-70
2023/01/31 01:52:15;;;;;;;4.78;1.23;;;;;;;;;;6278637;22;20039;-70
2023/01/31 01:54:44;;;;;;;8.30;1.20;;;;;;;;;;6235350;22;20031;-70
2023/01/31 01:57:11;;;;;;;7.40;1.50;;;;;;;;;;6219443;22;20036;-70
2023/01/31 01:59:39;;;;;;;7.10;1.30;;;;;;;;;;6227146;22;20023;-69
2023/01/31 02:02:08;;;;;;;6.45;1.65;;;;;;;;;;6227652;22;20062;-69
2023/01/31 02:04:34;;;;;;;;;;;;;;;;;;6220287;22;20035;-69
2023/01/31 02:07:01;;;;;;;6.28;1.33;;;;;;;;;;6219924;22;19926;-69
2023/01/31 02:09:31;;;;;;;8.38;1.23;;;;;;;;;;6252410;22;20023;-69
2023/01/31 02:11:59;;;;;;;6.10;1.35;;;;;;;;;;6252474;22;20033;-69
2023/01/31 02:14:25;;;;;;;7.45;1.30;;;;;;;;;;6222952;22;20034;-69
2023/01/31 02:16:54;;;;;;;5.85;1.60;;;;;;;;;;6225628;22;20035;-69
2023/01/31 02:19:27;;;;;;;9.35;1.45;;;;;;;;;;6249353;22;20124;-70
2023/01/31 02:22:03;;;;;;;2.40;1.10;;;;;;;;;;6255274;22;20023;-70
2023/01/31 02:24:49;;;;;;;5.88;1.38;;;;;;;;;;6222400;22;20026;-70
2023/01/31 02:27:28;;;;;;;3.35;1.38;;;;;;;;;;6223348;22;20027;-68
2023/01/31 02:30:22;;;;;;;6.20;1.58;;;;;;;;;;6226110;22;20035;-69
2023/01/31 02:32:55;;;;;;;7.53;1.67;;;;;;;;;;6221356;22;20024;-69
2023/01/31 02:35:27;;;;;;;6.70;1.42;;;;;;;;;;6251872;22;20019;-68
2023/01/31 02:37:57;;;;;;;4.35;1.48;;;;;;;;;;6229016;22;20034;-69
2023/01/31 02:40:27;;;;;;;8.13;1.75;;;;;;;;;;6252485;22;20028;-70
2023/01/31 02:42:57;;;;;;;4.13;1.25;;;;;;;;;;6216888;22;20024;-70
2023/01/31 02:45:30;;;;;;;6.45;1.65;;;;;;;;;;6249746;22;20030;-68
2023/01/31 02:48:03;;;;;;;7.13;1.40;;;;;;;;;;6252611;22;20106;-68
2023/01/31 02:50:31;;;;;;;5.63;1.23;;;;;;;;;;6252483;22;20031;-69
2023/01/31 02:52:59;;;;;;;5.78;1.17;;;;;;;;;;6216675;22;20079;-70
2023/01/31 02:58:13;;;;;;;4.80;1.20;;;;;;;;;;6253667;22;20266;-69
2023/01/31 03:00:40;;;;;;;;;;;;;;;;;;6228622;22;20030;-70
2023/01/31 03:03:13;;;;;;;7.63;1.58;;;;;;;;;;6205317;22;19945;-69
2023/01/31 03:05:41;;;;;;;3.85;1.33;;;;;;;;;;6224865;22;20019;-68
2023/01/31 03:08:10;;;;;;;4.55;1.20;;;;;;;;;;6226535;22;20031;-68
2023/01/31 03:10:46;;;;;;;6.50;1.33;;;;;;;;;;6227246;22;20031;-68
2023/01/31 03:13:25;;;;;;;8.52;1.17;;;;;;;;;;6214251;22;20080;-69
2023/01/31 03:18:49;;;;;;;6.20;1.30;;;;;;;;;;6252840;22;20027;-68
2023/01/31 03:21:17;;;;;;;5.15;1.65;;;;;;;;;;6243112;22;20081;-69
2023/01/31 03:23:45;;;;;;;4.32;1.10;;;;;;;;;;6243519;22;20028;-69
2023/01/31 03:26:12;;;;;;;7.68;1.20;;;;;;;;;;6197060;23;20028;-69
2023/01/31 03:28:41;;;;;;;7.13;1.55;;;;;;;;;;6170032;23;20104;-69
2023/01/31 03:31:10;;;;;;;8.65;1.77;;;;;;;;;;6170072;23;20042;-70
2023/01/31 03:33:41;;;;;;;7.72;1.77;;;;;;;;;;6164391;23;20054;-69
2023/01/31 03:36:13;;;;;;;4.00;1.00;;;;;;;;;;6171484;23;20024;-69
2023/01/31 03:38:44;;;;;;;8.68;1.67;;;;;;;;;;6170631;23;20024;-68
2023/01/31 03:41:12;;;;;;;5.43;1.42;;;;;;;;;;6163135;23;20024;-70
2023/01/31 03:43:44;;;;;;;6.85;1.55;;;;;;;;;;6165020;23;20130;-68
2023/01/31 03:46:15;;;;;;;10.90;1.90;;;;;;;;;;6197874;23;20016;-69
2023/01/31 03:48:44;;;;;;;5.53;1.60;;;;;;;;;;6170481;23;20020;-70
2023/01/31 03:51:14;;;;;;;7.38;1.25;;;;;;;;;;6192467;23;20186;-69
2023/01/31 03:53:43;;;;;;;6.22;1.85;;;;;;;;;;6159550;23;20056;-69
2023/01/31 03:56:13;;;;;;;15.20;1.80;;;;;;;;;;6193736;23;20044;-69
2023/01/31 03:58:41;;;;;;;9.10;1.67;;;;;;;;;;6170629;23;20024;-69
2023/01/31 04:01:08;;;;;;;9.23;1.90;;;;;;;;;;6156580;23;20031;-68
2023/01/31 04:03:37;;;;;;;6.63;1.70;;;;;;;;;;6150846;23;20032;-70
2023/01/31 04:06:04;;;;;;;6.10;1.60;;;;;;;;;;6173659;23;20027;-69
2023/01/31 04:08:32;;;;;;;7.65;1.70;;;;;;;;;;6198503;23;20035;-70
2023/01/31 04:10:59;;;;;;;10.38;2.00;;;;;;;;;;6173530;23;20024;-68
2023/01/31 04:13:26;;;;;;;9.32;2.58;;;;;;;;;;6161284;23;20024;-68
2023/01/31 04:15:52;;;;;;;7.15;1.98;;;;;;;;;;6197859;23;20076;-69
2023/01/31 04:18:19;;;;;;;8.90;2.17;;;;;;;;;;6172500;23;20027;-69
2023/01/31 04:20:45;;;;;;;10.85;2.15;;;;;;;;;;6171836;23;20016;-70
2023/01/31 04:23:12;;;;;;;10.98;1.73;;;;;;;;;;6170135;22;20028;-68
2023/01/31 04:25:40;;;;;;;13.07;2.00;;;;;;;;;;6229339;22;20031;-68
2023/01/31 04:28:07;;;;;;;12.68;2.67;;;;;;;;;;6234459;22;20050;-69
2023/01/31 04:30:33;;;;;;;8.32;2.00;;;;;;;;;;6232646;22;20030;-69
2023/01/31 04:32:59;;;;;;;7.78;1.75;;;;;;;;;;6229832;22;20026;-70
2023/01/31 04:35:26;;;;;;;13.82;3.08;;;;;;;;;;6247513;22;20188;-69
2023/01/31 04:37:52;;;;;;;11.15;2.30;;;;;;;;;;6259701;22;20034;-70
2023/01/31 04:40:19;;;;;;;8.95;2.42;;;;;;;;;;6282268;22;20038;-69
2023/01/31 04:42:49;;;;;;;6.97;2.17;;;;;;;;;;6214791;22;20023;-69
2023/01/31 04:45:16;;;;;;;8.10;2.35;;;;;;;;;;6245841;22;20055;-69
2023/01/31 04:47:42;;;;;;;5.95;1.80;;;;;;;;;;6235001;22;20030;-69
2023/01/31 04:50:10;;;;;;;12.60;2.58;;;;;;;;;;6234879;22;20130;-70
2023/01/31 04:52:36;;;;;;;9.05;2.58;;;;;;;;;;6255183;22;20034;-68
2023/01/31 04:55:03;;;;;;;11.10;2.35;;;;;;;;;;6232081;22;20112;-70
2023/01/31 04:57:30;;;;;;;11.55;2.33;;;;;;;;;;6224994;22;21840;-68
2023/01/31 04:59:58;;;;;;;16.30;2.63;;;;;;;;;;6235094;22;20031;-68
2023/01/31 05:02:24;;;;;;;12.20;2.53;;;;;;;;;;6232182;22;20050;-69
2023/01/31 05:04:51;;;;;;;8.82;2.40;;;;;;;;;;6251513;22;20075;-69
2023/01/31 05:07:17;;;;;;;13.02;2.55;;;;;;;;;;6224166;22;20023;-69
2023/01/31 05:09:44;;;;;;;10.77;2.65;;;;;;;;;;6233657;22;20023;-68
2023/01/31 05:12:11;;;;;;;11.02;2.75;;;;;;;;;;6231179;22;20045;-68
2023/01/31 05:14:37;;;;;;;10.02;3.38;;;;;;;;;;6228064;22;20107;-69
2023/01/31 05:17:07;;;;;;;15.95;2.97;;;;;;;;;;6230907;22;20104;-68
2023/01/31 05:19:34;;;;;;;8.13;2.50;;;;;;;;;;6227371;22;20023;-69
2023/01/31 05:22:00;;;;;;;11.13;2.70;;;;;;;;;;6232371;22;20023;-68
2023/01/31 05:24:28;;;;;;;8.02;2.47;;;;;;;;;;6243039;22;20028;-69
2023/01/31 05:26:57;;;;;;;11.15;3.03;;;;;;;;;;6254263;22;20024;-69
2023/01/31 05:29:24;;;;;;;10.73;2.80;;;;;;;;;;6219490;22;20028;-68
2023/01/31 05:31:51;;;;;;;8.98;2.80;;;;;;;;;;6204857;22;20073;-69
2023/01/31 05:34:18;;;;;;;9.95;2.50;;;;;;;;;;6199453;22;20024;-69
2023/01/31 05:36:46;;;;;;;14.13;2.83;;;;;;;;;;6203850;22;20023;-69
2023/01/31 05:39:13;;;;;;;12.75;2.60;;;;;;;;;;6195443;22;20031;-70
2023/01/31 05:41:40;;;;;;;11.80;3.10;;;;;;;;;;6228634;22;20024;-68
2023/01/31 05:44:07;;;;;;;10.13;2.78;;;;;;;;;;6223616;22;20048;-70
2023/01/31 05:46:33;;;;;;;10.65;3.08;;;;;;;;;;6202758;22;20050;-69
2023/01/31 05:49:00;;;;;;;14.88;3.47;;;;;;;;;;6199475;22;20122;-68
2023/01/31 05:51:28;;;;;;;11.77;3.28;;;;;;;;;;6216636;22;20034;-68
2023/01/31 05:53:55;;;;;;;10.93;3.13;;;;;;;;;;6197823;22;20049;-68
2023/01/31 05:56:21;;;;;;;10.82;3.20;;;;;;;;;;6202736;22;20469;-68
2023/01/31 05:58:49;;;;;;;13.10;3.17;;;;;;;;;;6199858;22;20031;-69
2023/01/31 06:01:16;;;;;;;9.80;3.00;;;;;;;;;;6177771;22;20027;-70
2023/01/31 06:03:42;;;;;;;18.05;3.97;;;;;;;;;;6194308;22;20027;-68
2023/01/31 06:06:09;;;;;;;12.68;3.58;;;;;;;;;;6202397;22;20023;-70
2023/01/31 06:08:37;;;;;;;8.00;3.20;;;;;;;;;;6226446;22;20094;-68
2023/01/31 06:11:04;;;;;;;9.10;3.07;;;;;;;;;;6225767;22;20031;-69
2023/01/31 06:13:31;;;;;;;11.18;3.55;;;;;;;;;;6189001;22;20234;-69
2023/01/31 06:15:58;;;;;;;14.52;3.00;;;;;;;;;;6203072;22;20066;-69
2023/01/31 06:18:25;;;;;;;11.93;3.03;;;;;;;;;;6202797;22;20102;-69
2023/01/31 06:20:52;;;;;;;10.45;3.08;;;;;;;;;;6199244;22;20043;-70
2023/01/31 06:23:18;;;;;;;8.38;2.88;;;;;;;;;;6212776;22;20239;-69
2023/01/31 06:25:48;;;;;;;11.48;3.10;;;;;;;;;;6200889;22;20049;-68
2023/01/31 06:28:14;;;;;;;12.85;3.78;;;;;;;;;;6229869;22;20028;-67
2023/01/31 06:30:41;;;;;;;15.82;3.85;;;;;;;;;;6226709;22;20134;-69
2023/01/31 06:33:08;;;;;;;13.82;4.18;;;;;;;;;;6246063;22;20034;-67
2023/01/31 06:35:38;;;;;;;9.75;3.60;;;;;;;;;;6224978;22;20023;-69
2023/01/31 06:38:04;;;;;;;11.32;3.28;;;;;;;;;;6202521;22;20020;-69
2023/01/31 06:40:31;;;;;;;12.75;3.38;;;;;;;;;;6200345;22;20050;-68
2023/01/31 06:42:59;;;;;;;12.82;3.38;;;;;;;;;;6198744;22;20020;-69
2023/01/31 06:45:26;;;;;;;23.33;3.80;;;;;;;;;;6218034;22;20053;-68
2023/01/31 06:47:52;;;;;;;10.68;3.15;;;;;;;;;;6202945;22;20239;-70
2023/01/31 06:50:19;;;;;;;12.50;3.60;;;;;;;;;;6226953;22;20023;-68
2023/01/31 06:52:45;;;;;;;10.70;3.22;;;;;;;;;;6190859;22;20019;-69
2023/01/31 06:55:12;;;;;;;18.77;4.10;;;;;;;;;;6190466;22;20023;-69
2023/01/31 06:57:45;;;;;;;14.20;3.97;;;;;;;;;;6254115;22;20023;-69
2023/01/31 07:00:14;;;;;;;15.75;3.55;;;;;;;;;;6213331;22;20030;-69
2023/01/31 07:02:41;;;;;;;13.18;3.95;;;;;;;;;;6195811;22;20031;-69
2023/01/31 07:05:10;;;;;;;11.45;3.35;;;;;;;;;;6244140;22;20027;-69
2023/01/31 07:07:37;;;;;;;11.93;3.97;;;;;;;;;;6252204;22;20146;-67
2023/01/31 07:10:04;;;;;;;12.27;3.88;;;;;;;;;;6204392;22;20028;-69
2023/01/31 07:12:31;;;;;;;15.10;3.65;;;;;;;;;;6200702;22;20023;-67
2023/01/31 07:14:57;;;;;;;14.52;4.00;;;;;;;;;;6195895;22;20054;-67
2023/01/31 07:17:25;;;;;;;16.17;3.78;;;;;;;;;;6217056;22;20030;-68
2023/01/31 07:19:52;;;;;;;13.65;3.60;;;;;;;;;;6203006;22;20019;-69
2023/01/31 07:22:19;;;;;;;14.20;3.45;;;;;;;;;;6227064;22;20027;-67
2023/01/31 07:24:47;;;;;;;17.17;3.88;;;;;;;;;;6207652;22;20031;-68
2023/01/31 07:27:14;;;;;;;11.32;3.40;;;;;;;;;;6188868;22;20028;-69
2023/01/31 07:29:41;;;;;;;10.73;3.78;;;;;;;;;;6227172;22;20031;-68
2023/01/31 07:32:07;;;;;;;11.43;3.40;;;;;;;;;;6225772;22;20027;-65
2023/01/31 07:34:35;;;;;;;12.02;3.42;;;;;;;;;;6226632;22;20023;-66
2023/01/31 07:37:02;;;;;;;14.85;3.65;;;;;;;;;;6229545;22;20070;-69
2023/01/31 07:39:29;;;;;;;9.70;3.03;;;;;;;;;;6197086;22;20050;-69
2023/01/31 07:41:56;;;;;;;13.82;3.60;;;;;;;;;;6201966;22;20031;-71
2023/01/31 07:44:24;;;;;;;9.38;3.15;;;;;;;;;;6221463;22;20020;-69
2023/01/31 07:46:53;;;;;;;12.25;3.60;;;;;;;;;;6203894;22;20023;-69
2023/01/31 07:49:20;;;;;;;11.02;3.42;;;;;;;;;;6176857;22;20043;-68
2023/01/31 07:51:48;;;;;;;10.10;3.33;;;;;;;;;;6189721;22;20097;-71
2023/01/31 07:54:15;;;;;;;14.02;3.88;;;;;;;;;;6168613;22;20020;-71
2023/01/31 07:56:42;;;;;;;17.65;3.58;;;;;;;;;;6205893;22;20023;-71
2023/01/31 07:59:08;;;;;;;15.63;3.65;;;;;;;;;;6183593;22;20106;-70
2023/01/31 08:04:20;;;;;;;8.35;3.00;;;;;;;;;;6153439;22;20020;-71
2023/01/31 08:06:49;;;;;;;10.45;3.63;;;;;;;;;;6161548;22;20019;-71
2023/01/31 08:09:19;;;;;;;11.98;3.60;;;;;;;;;;6186016;22;20104;-71
2023/01/31 08:11:48;;;;;;;12.63;3.40;;;;;;;;;;6206226;22;20078;-71
2023/01/31 08:14:16;;;;;;;14.23;3.60;;;;;;;;;;6157169;22;20016;-70
2023/01/31 08:16:45;;;;;;;11.27;3.53;;;;;;;;;;6190480;22;20044;-71
2023/01/31 08:19:12;;;;;;;14.35;3.60;;;;;;;;;;6193403;22;20023;-71
2023/01/31 08:21:39;;;;;;;10.48;3.45;;;;;;;;;;6202327;22;20032;-71
2023/01/31 08:24:09;;;;;;;11.35;3.35;;;;;;;;;;6170294;22;20028;-71
2023/01/31 08:26:37;;;;;;;10.90;3.65;;;;;;;;;;6189707;22;20019;-70
2023/01/31 08:29:04;;;;;;;14.27;3.00;;;;;;;;;;6201896;22;20027;-71
2023/01/31 08:31:33;;;;;;;7.47;2.88;;;;;;;;;;6170070;22;20028;-70
2023/01/31 08:34:01;;;;;;;11.75;3.33;;;;;;;;;;6154743;22;20074;-70
2023/01/31 08:36:34;;;;;;;13.55;2.90;;;;;;;;;;6195828;22;20023;-69
2023/01/31 08:39:11;;;;;;;11.77;3.05;;;;;;;;;;6198489;22;20028;-69
2023/01/31 08:41:42;;;;;;;12.98;3.20;;;;;;;;;;6191356;22;20019;-70
2023/01/31 08:44:10;;;;;;;12.95;3.10;;;;;;;;;;6154122;22;20090;-70
2023/01/31 08:46:37;;;;;;;9.37;3.30;;;;;;;;;;6199744;22;20050;-71
2023/01/31 08:49:06;;;;;;;11.07;2.80;;;;;;;;;;6186309;22;20023;-70
2023/01/31 08:51:33;;;;;;;9.82;3.05;;;;;;;;;;6195182;22;20016;-71
2023/01/31 08:54:00;;;;;;;10.77;2.95;;;;;;;;;;6151503;23;20028;-71
2023/01/31 08:56:27;;;;;;;10.48;3.00;;;;;;;;;;6155331;23;20044;-70
2023/01/31 08:58:55;;;;;;;7.60;2.83;;;;;;;;;;6186504;22;20027;-71
2023/01/31 09:01:23;;;;;;;12.75;3.00;;;;;;;;;;6192269;22;20258;-70
2023/01/31 09:03:55;;;;;;;18.13;2.67;;;;;;;;;;6100386;23;20043;-71
2023/01/31 09:06:23;;;;;;;12.93;3.28;;;;;;;;;;6190981;22;20110;-70
2023/01/31 09:08:51;;;;;;;10.67;3.27;;;;;;;;;;6188239;22;20024;-71
2023/01/31 09:11:19;;;;;;;8.32;2.67;;;;;;;;;;6195388;22;20027;-71
2023/01/31 09:13:46;;;;;;;13.30;2.80;;;;;;;;;;6184436;22;20036;-71
2023/01/31 09:16:14;;;;;;;8.50;2.60;;;;;;;;;;6225499;22;20020;-71
2023/01/31 09:18:42;;;;;;;11.02;2.90;;;;;;;;;;6193009;22;20054;-70
2023/01/31 09:21:10;;;;;;;10.32;2.42;;;;;;;;;;6222177;22;20027;-71
2023/01/31 09:23:39;;;;;;;11.88;2.45;;;;;;;;;;6224471;22;20023;-70
2023/01/31 09:26:07;;;;;;;13.52;3.05;;;;;;;;;;6183917;22;20028;-70
2023/01/31 09:28:34;;;;;;;8.88;2.92;;;;;;;;;;6207809;22;20020;-71
2023/01/31 09:31:04;;;;;;;8.57;2.38;;;;;;;;;;6202857;22;20023;-70
2023/01/31 09:33:34;;;;;;;12.65;2.83;;;;;;;;;;6148693;22;21809;-71
2023/01/31 09:36:02;;;;;;;7.88;2.42;;;;;;;;;;6205035;22;20028;-70
2023/01/31 09:38:29;;;;;;;14.43;3.00;;;;;;;;;;6188599;22;20031;-71
2023/01/31 09:40:57;;;;;;;13.40;2.47;;;;;;;;;;6169540;22;20484;-69
2023/01/31 09:43:29;;;;;;;10.07;2.83;;;;;;;;;;6144359;22;20024;-70
2023/01/31 09:45:59;;;;;;;9.38;2.65;;;;;;;;;;6215082;22;20039;-70
2023/01/31 09:48:33;;;;;;;11.32;2.97;;;;;;;;;;6204851;22;20027;-72
2023/01/31 09:51:04;;;;;;;10.80;2.72;;;;;;;;;;6185161;22;20034;-70
2023/01/31 09:53:32;;;;;;;8.32;2.15;;;;;;;;;;6154783;23;20039;-71
2023/01/31 09:56:05;;;;;;;14.88;2.75;;;;;;;;;;6166871;22;20032;-71
2023/01/31 09:58:39;;;;;;;16.27;2.67;;;;;;;;;;6178204;22;20027;-71
2023/01/31 10:01:10;;;;;;;12.07;2.55;;;;;;;;;;6199307;22;20035;-72
2023/01/31 10:03:51;;;;;;;10.98;2.90;;;;;;;;;;6145616;22;20986;-71
2023/01/31 10:06:22;;;;;;;8.18;2.10;;;;;;;;;;6179489;23;20035;-71
2023/01/31 10:08:53;;;;;;;6.85;2.20;;;;;;;;;;6190848;22;20049;-70
2023/01/31 10:11:26;;;;;;;13.93;2.10;;;;;;;;;;6206975;22;20038;-70
2023/01/31 10:13:56;;;;;;;10.02;2.67;;;;;;;;;;6151549;22;20023;-70
2023/01/31 10:16:26;;;;;;;13.15;2.60;;;;;;;;;;6201631;22;20027;-70
2023/01/31 10:18:56;;;;;;;12.50;2.65;;;;;;;;;;6197368;22;20028;-70
2023/01/31 10:21:29;;;;;;;12.02;2.42;;;;;;;;;;6193491;22;20116;-70
2023/01/31 10:23:57;;;;;;;8.82;2.60;;;;;;;;;;6174295;22;20027;-70
2023/01/31 10:26:27;;;;;;;7.68;2.40;;;;;;;;;;6186483;22;20031;-71
2023/01/31 10:28:58;;;;;;;10.20;3.05;;;;;;;;;;6197918;22;20027;-71
2023/01/31 10:31:34;;;;;;;11.77;3.10;;;;;;;;;;6183981;22;20019;-70
2023/01/31 10:34:05;;;;;;;17.88;3.13;;;;;;;;;;6142364;23;20028;-71
2023/01/31 10:36:47;;;;;;;15.43;3.65;;;;;;;;;;6177967;22;20169;-71
2023/01/31 10:39:17;;;;;;;12.15;2.50;;;;;;;;;;6172468;22;20027;-70
2023/01/31 10:41:52;;;;;;;12.43;2.70;;;;;;;;;;6203277;22;20027;-71
2023/01/31 10:44:23;;;;;;;12.40;2.65;;;;;;;;;;6173957;22;20058;-70
2023/01/31 10:46:56;;;;;;;11.43;2.42;;;;;;;;;;6185758;22;20028;-70
2023/01/31 10:49:25;;;;;;;12.55;2.95;;;;;;;;;;6188654;22;20091;-71
2023/01/31 10:52:13;;;;;;;12.85;3.20;;;;;;;;;;6190126;22;20024;-70
2023/01/31 10:54:47;;;;;;;6.95;2.60;;;;;;;;;;6133437;22;20186;-71
2023/01/31 10:57:15;;;;;;;9.63;2.65;;;;;;;;;;6179687;22;20141;-71
2023/01/31 10:59:45;;;;;;;14.30;3.10;;;;;;;;;;6197274;22;20095;-71
2023/01/31 11:02:18;;;;;;;15.40;3.03;;;;;;;;;;6187866;22;20262;-71
2023/01/31 11:04:47;;;;;;;11.45;2.90;;;;;;;;;;6169391;22;20020;-71
2023/01/31 11:07:17;;;;;;;13.57;3.20;;;;;;;;;;6198721;22;20037;-71
2023/01/31 11:09:50;;;;;;;10.27;2.72;;;;;;;;;;6229019;22;20023;-70
2023/01/31 11:12:17;;;;;;;9.30;2.67;;;;;;;;;;6187377;22;20110;-70
2023/01/31 11:14:44;;;;;;;11.40;2.72;;;;;;;;;;6154927;22;20108;-70
2023/01/31 11:17:14;;;;;;;12.55;2.78;;;;;;;;;;6192797;22;20053;-71
2023/01/31 11:19:45;;;;;;;13.05;3.63;;;;;;;;;;6215199;22;20023;-70
2023/01/31 11:22:21;;;;;;;8.35;3.17;;;;;;;;;;6161980;22;20043;-70
2023/01/31 11:24:49;;;;;;;12.30;3.10;;;;;;;;;;6194065;22;20028;-70
2023/01/31 11:27:24;;;;;;;11.50;2.83;;;;;;;;;;6205643;22;20055;-71
2023/01/31 11:29:54;;;;;;;16.83;3.22;;;;;;;;;;6178439;22;20102;-71
2023/01/31 11:32:25;;;;;;;11.73;2.75;;;;;;;;;;6235592;22;20028;-70
2023/01/31 11:34:52;;;;;;;;;;;;;;;;;;6188914;22;20023;-70
2023/01/31 11:37:23;;;;;;;7.00;2.38;;;;;;;;;;6191814;22;20215;-71
2023/01/31 11:39:54;;;;;;;18.45;2.90;;;;;;;;;;6198780;22;20020;-70
2023/01/31 11:42:23;;;;;;;10.63;2.67;;;;;;;;;;6198388;22;20107;-71
2023/01/31 11:44:56;;;;;;;12.95;2.72;;;;;;;;;;6198640;22;20052;-70
2023/01/31 11:47:25;;;;;;;13.20;2.80;;;;;;;;;;6197936;22;20075;-71
2023/01/31 11:49:52;;;;;;;18.58;3.05;;;;;;;;;;6192611;22;20027;-70
2023/01/31 11:52:30;;;;;;;11.52;2.42;;;;;;;;;;6237025;22;20023;-71
2023/01/31 11:54:57;;;;;;;9.88;2.63;;;;;;;;;;6192628;22;20083;-70
2023/01/31 11:57:26;;;;;;;10.57;2.70;;;;;;;;;;6174994;22;20045;-71
2023/01/31 11:59:55;;;;;;;10.75;2.65;;;;;;;;;;6227736;22;20297;-71
2023/01/31 12:02:26;;;;;;;13.88;2.67;;;;;;;;;;6174299;22;20019;-71
2023/01/31 12:04:53;;;;;;;9.48;2.88;;;;;;;;;;6196044;22;20019;-70
2023/01/31 12:07:21;;;;;;;11.38;2.42;;;;;;;;;;6183959;22;20062;-71
2023/01/31 12:09:50;;;;;;;6.77;2.60;;;;;;;;;;6183957;22;20110;-71
2023/01/31 12:12:28;;;;;;;10.63;2.58;;;;;;;;;;6191707;22;20283;-71
2023/01/31 12:14:56;;;;;;;15.18;3.10;;;;;;;;;;6147638;22;20026;-71
2023/01/31 12:17:23;;;;;;;11.93;2.38;;;;;;;;;;6179911;22;20303;-71
2023/01/31 12:19:56;;;;;;;16.88;2.63;;;;;;;;;;6206436;22;20023;-71
2023/01/31 12:22:29;;;;;;;11.82;2.67;;;;;;;;;;6203390;22;20114;-71
2023/01/31 12:25:10;;;;;;;12.57;2.40;;;;;;;;;;6150768;22;20131;-71
2023/01/31 12:27:49;;;;;;;13.90;2.53;;;;;;;;;;6222183;22;20020;-72
2023/01/31 12:30:36;;;;;;;11.88;2.17;;;;;;;;;;6186075;22;20031;-71
2023/01/31 12:33:29;;;;;;;10.38;2.33;;;;;;;;;;6165518;22;20052;-71
2023/01/31 12:36:06;;;;;;;10.73;2.50;;;;;;;;;;6082452;23;20357;-71
2023/01/31 12:38:39;;;;;;;9.40;2.00;;;;;;;;;;6174649;22;20054;-71
2023/01/31 12:41:33;;;;;;;;;;;;;;;;;;;;;
2023/01/31 12:44:11;;;;;;;9.43;2.60;;;;;;;;;;6150697;22;20028;-71
2023/01/31 12:46:44;;;;;;;11.40;2.00;;;;;;;;;;6190590;22;20032;-71
2023/01/31 12:49:31;;;;;;;12.93;2.63;;;;;;;;;;6170057;22;20034;-72
2023/01/31 12:52:04;;;;;;;9.93;2.42;;;;;;;;;;6180339;22;20119;-71
2023/01/31 12:54:38;;;;;;;7.65;2.50;;;;;;;;;;6177437;22;20088;-72
2023/01/31 12:57:11;;;;;;;6.75;1.92;;;;;;;;;;6192559;22;20023;-71
2023/01/31 12:59:49;;;;;;;11.70;2.78;;;;;;;;;;6174731;22;20028;-70
2023/01/31 13:02:30;;;;;;;6.78;2.00;;;;;;;;;;6190779;22;20051;-71
2023/01/31 13:04:59;;;;;;;8.80;2.35;;;;;;;;;;6112770;23;20025;-71
2023/01/31 13:07:29;;;;;;;6.20;2.08;;;;;;;;;;6080000;23;20507;-72
2023/01/31 13:10:02;;;;;;;8.02;2.67;;;;;;;;;;6095298;23;20029;-72
2023/01/31 13:12:34;;;;;;;9.65;1.90;;;;;;;;;;6109623;23;20029;-71
2023/01/31 13:15:06;;;;;;;7.32;2.28;;;;;;;;;;6092612;23;20128;-72
2023/01/31 13:17:39;;;;;;;10.07;2.22;;;;;;;;;;6105365;23;20039;-72
2023/01/31 13:20:23;;;;;;;8.65;1.83;;;;;;;;;;6110680;23;20025;-71
2023/01/31 13:22:53;;;;;;;8.30;1.92;;;;;;;;;;6195532;22;20046;-70
2023/01/31 13:25:22;;;;;;;9.20;2.42;;;;;;;;;;6194244;22;20055;-71
2023/01/31 13:27:54;;;;;;;11.38;2.33;;;;;;;;;;6226376;22;20042;-71
2023/01/31 13:30:24;;;;;;;7.07;2.10;;;;;;;;;;6225788;22;20019;-73
2023/01/31 13:32:54;;;;;;;7.22;2.28;;;;;;;;;;6221354;22;20029;-71
2023/01/31 13:35:23;;;;;;;5.95;1.83;;;;;;;;;;6204544;22;20019;-70
2023/01/31 13:37:53;;;;;;;10.55;2.05;;;;;;;;;;6191886;22;20051;-71
2023/01/31 13:40:21;;;;;;;10.77;2.10;;;;;;;;;;6222158;22;20110;-70
2023/01/31 13:42:47;;;;;;;11.65;2.08;;;;;;;;;;6247478;22;20073;-70
2023/01/31 13:45:22;;;;;;;10.82;2.40;;;;;;;;;;6157573;22;20020;-71
2023/01/31 13:47:51;;;;;;;13.32;2.40;;;;;;;;;;6224013;22;20036;-70
2023/01/31 13:50:17;;;;;;;;;;;;;;;;;;6211449;22;20044;-70
2023/01/31 13:52:46;;;;;;;12.50;2.22;;;;;;;;;;6234637;22;19923;-71
2023/01/31 13:55:17;;;;;;;11.20;2.13;;;;;;;;;;6204896;22;20024;-70
2023/01/31 13:57:52;;;;;;;9.43;2.05;;;;;;;;;;6221627;22;20024;-71
2023/01/31 14:00:30;;;;;;;8.43;2.10;;;;;;;;;;6249607;22;20450;-70
2023/01/31 14:03:01;;;;;;;8.60;2.30;;;;;;;;;;6251875;22;20023;-70
2023/01/31 14:05:47;;;;;;;10.88;2.35;;;;;;;;;;6166650;22;20024;-70
2023/01/31 14:08:31;;;;;;;8.45;2.15;;;;;;;;;;6216403;22;20028;-70
2023/01/31 14:11:03;;;;;;;9.00;1.80;;;;;;;;;;6183790;22;20041;-70
2023/01/31 14:13:40;;;;;;;10.60;1.80;;;;;;;;;;6225416;22;20047;-70
2023/01/31 14:16:21;;;;;;;9.25;2.00;;;;;;;;;;6211150;22;20151;-71
2023/01/31 14:18:52;;;;;;;8.05;2.08;;;;;;;;;;6176204;22;20024;-71
2023/01/31 14:21:37;;;;;;;9.88;2.45;;;;;;;;;;6239593;22;20296;-71
2023/01/31 14:24:06;;;;;;;7.45;2.22;;;;;;;;;;6226685;22;20034;-70
2023/01/31 14:26:37;;;;;;;6.30;1.83;;;;;;;;;;6130799;23;20491;-70
2023/01/31 14:29:11;;;;;;;8.18;2.25;;;;;;;;;;6195248;22;20024;-71
2023/01/31 14:31:38;;;;;;;9.88;2.10;;;;;;;;;;6201774;22;20106;-70
2023/01/31 14:34:16;;;;;;;10.70;2.00;;;;;;;;;;6206056;22;20189;-70
2023/01/31 14:36:47;;;;;;;14.38;2.22;;;;;;;;;;6148067;22;20030;-70
2023/01/31 14:39:22;;;;;;;13.07;2.22;;;;;;;;;;6168217;23;20106;-71
2023/01/31 14:42:01;;;;;;;11.07;2.42;;;;;;;;;;6190639;22;20034;-70
2023/01/31 14:44:28;;;;;;;;;;;;;;;;;;6234816;22;20020;-71
2023/01/31 14:47:08;;;;;;;5.70;1.42;;;;;;;;;;6181551;22;19924;-70
2023/01/31 14:49:49;;;;;;;12.90;1.88;;;;;;;;;;6195265;22;20032;-70
2023/01/31 14:52:25;;;;;;;9.70;2.00;;;;;;;;;;6202347;22;20024;-71
2023/01/31 14:54:59;;;;;;;10.00;1.92;;;;;;;;;;6239967;22;20071;-71
2023/01/31 14:57:33;;;;;;;6.75;1.75;;;;;;;;;;6197411;22;20031;-71
2023/01/31 15:00:01;;;;;;;8.48;2.33;;;;;;;;;;6198034;22;20047;-71
2023/01/31 15:02:48;;;;;;;8.02;1.75;;;;;;;;;;6224645;22;20054;-71